createdAt,value
2023-01-18T00:07:37.585Z,1.00
2023-01-18T00:10:05.094Z,1.10
2023-01-18T00:12:40.370Z,1.20
2023-01-18T00:15:43.967Z,1.20
2023-01-18T00:18:23.375Z,1.10
2023-01-18T00:20:50.574Z,1.10
2023-01-18T00:23:22.691Z,1.00
2023-01-18T00:28:57.702Z,0.90
2023-01-18T00:31:25.929Z,0.80
2023-01-18T00:33:55.659Z,0.70
2023-01-18T00:36:25.995Z,0.70
2023-01-18T00:39:44.572Z,0.60
2023-01-18T00:42:31.794Z,0.60
2023-01-18T00:45:04.957Z,0.60
2023-01-18T00:47:32.239Z,0.50
2023-01-18T00:50:22.741Z,0.50
2023-01-18T00:56:32.554Z,0.50
2023-01-18T01:10:09.984Z,0.40
2023-01-18T01:13:13.794Z,0.30
2023-01-18T01:19:43.822Z,0.30
2023-01-18T01:32:10.012Z,0.20
2023-01-18T01:34:45.569Z,0.30
2023-01-18T01:37:13.040Z,0.30
2023-01-18T01:43:15.111Z,0.30
2023-01-18T01:45:42.470Z,0.30
2023-01-18T01:48:15.362Z,0.40
2023-01-18T01:50:51.823Z,0.40
2023-01-18T01:53:19.056Z,0.40
2023-01-18T01:55:47.026Z,0.30
2023-01-18T01:58:24.957Z,0.30
2023-01-18T02:01:16.047Z,0.30
2023-01-18T02:07:09.929Z,0.40
2023-01-18T02:09:52.080Z,0.40
2023-01-18T02:12:19.849Z,0.40
2023-01-18T02:14:47.801Z,0.40
2023-01-18T02:17:46.609Z,0.40
2023-01-18T03:23:53.773Z,0.30
2023-01-18T03:30:24.745Z,0.40
2023-01-18T03:59:40.687Z,1.30
2023-01-18T04:02:25.571Z,1.30
2023-01-18T04:05:08.880Z,1.30
2023-01-18T04:08:18.311Z,1.40
2023-01-18T04:15:11.000Z,1.40
2023-01-18T04:17:42.713Z,1.40
2023-01-18T04:20:38.744Z,1.50
2023-01-18T04:23:08.889Z,1.50
2023-01-18T04:25:36.096Z,1.50
2023-01-18T04:28:03.252Z,1.40
2023-01-18T04:30:33.375Z,1.40
2023-01-18T04:33:00.976Z,1.40
2023-01-18T04:35:28.541Z,1.40
2023-01-18T04:38:04.982Z,1.40
2023-01-18T04:40:32.531Z,1.40
2023-01-18T04:42:59.892Z,1.40
2023-01-18T04:45:27.249Z,1.40
2023-01-18T04:47:54.292Z,1.40
2023-01-18T04:51:14.383Z,1.40
2023-01-18T04:53:43.936Z,1.30
2023-01-18T04:59:02.006Z,1.20
2023-01-18T05:01:31.332Z,1.10
2023-01-18T05:07:58.382Z,1.00
2023-01-18T05:10:25.727Z,1.00
2023-01-18T05:12:53.136Z,1.00
2023-01-18T05:15:41.264Z,1.10
2023-01-18T05:18:54.881Z,1.20
2023-01-18T05:22:23.393Z,1.20
2023-01-18T05:25:08.623Z,1.30
2023-01-18T05:27:36.082Z,1.30
2023-01-18T05:30:06.933Z,1.40
2023-01-18T05:32:35.310Z,1.40
2023-01-18T05:35:19.343Z,1.40
2023-01-18T05:38:12.505Z,1.40
2023-01-18T05:40:39.635Z,1.50
2023-01-18T05:43:06.735Z,1.50
2023-01-18T05:45:36.956Z,1.40
2023-01-18T05:48:04.706Z,1.40
2023-01-18T05:50:31.798Z,1.40
2023-01-18T05:52:59.806Z,1.40
2023-01-18T05:55:27.903Z,1.40
2023-01-18T05:57:55.114Z,1.30
2023-01-18T06:00:22.718Z,1.40
2023-01-18T06:02:50.129Z,1.30
2023-01-18T06:05:20.284Z,1.30
2023-01-18T06:07:48.113Z,1.20
2023-01-18T06:10:15.590Z,1.20
2023-01-18T06:12:43.879Z,1.30
2023-01-18T06:15:20.473Z,1.30
2023-01-18T06:17:47.499Z,1.30
2023-01-18T06:20:18.031Z,1.30
2023-01-18T06:22:46.479Z,1.20
2023-01-18T06:25:25.749Z,1.20
2023-01-18T06:27:55.855Z,1.20
2023-01-18T06:30:22.802Z,1.20
2023-01-18T06:32:50.546Z,1.30
2023-01-18T06:35:17.412Z,1.30
2023-01-18T06:37:46.190Z,1.40
2023-01-18T06:40:13.874Z,1.40
2023-01-18T06:42:41.542Z,1.40
2023-01-18T06:45:08.953Z,1.40
2023-01-18T06:47:35.750Z,1.40
2023-01-18T06:50:02.786Z,1.40
2023-01-18T06:52:29.641Z,1.40
2023-01-18T06:54:56.467Z,1.40
2023-01-18T06:57:24.080Z,1.30
2023-01-18T06:59:53.262Z,1.40
2023-01-18T07:02:21.109Z,1.30
2023-01-18T07:04:48.161Z,1.30
2023-01-18T07:07:15.340Z,1.30
2023-01-18T07:09:42.166Z,1.30
2023-01-18T07:12:09.451Z,1.30
2023-01-18T07:14:36.308Z,1.30
2023-01-18T07:17:03.150Z,1.40
2023-01-18T07:19:29.939Z,1.40
2023-01-18T07:21:57.741Z,1.50
2023-01-18T07:24:24.886Z,1.70
2023-01-18T07:26:51.649Z,1.70
2023-01-18T07:29:18.473Z,1.70
2023-01-18T07:31:46.386Z,1.70
2023-01-18T07:34:13.508Z,1.80
2023-01-18T07:36:41.898Z,1.80
2023-01-18T07:39:09.885Z,1.80
2023-01-18T07:41:37.358Z,1.90
2023-01-18T07:44:04.902Z,1.90
2023-01-18T07:46:32.289Z,2.00
2023-01-18T07:48:59.211Z,2.10
2023-01-18T07:51:26.045Z,2.20
2023-01-18T07:53:55.952Z,2.30
2023-01-18T07:56:25.154Z,2.30
2023-01-18T07:58:52.694Z,2.40
2023-01-18T08:01:21.888Z,2.50
2023-01-18T08:03:50.252Z,2.60
2023-01-18T08:06:25.072Z,3.00
2023-01-18T08:08:54.232Z,3.40
2023-01-18T08:11:21.061Z,3.80
2023-01-18T08:13:49.417Z,4.30
2023-01-18T08:16:17.792Z,4.30
2023-01-18T08:18:47.202Z,4.30
2023-01-18T08:21:14.146Z,4.40
2023-01-18T08:23:41.452Z,4.40
2023-01-18T08:26:10.488Z,4.20
2023-01-18T08:28:37.446Z,4.10
2023-01-18T08:31:20.041Z,4.10
2023-01-18T08:33:48.952Z,3.90
2023-01-18T08:36:20.176Z,3.70
2023-01-18T08:38:52.943Z,3.70
2023-01-18T08:41:28.573Z,3.80
2023-01-18T08:43:56.672Z,3.80
2023-01-18T08:46:24.558Z,3.90
2023-01-18T08:48:52.384Z,3.90
2023-01-18T08:51:20.318Z,4.00
2023-01-18T08:53:47.366Z,4.30
2023-01-18T08:56:14.758Z,4.50
2023-01-18T08:58:41.810Z,4.50
2023-01-18T09:01:09.940Z,4.60
2023-01-18T09:03:37.486Z,4.70
2023-01-18T09:06:08.326Z,5.10
2023-01-18T09:08:36.032Z,5.70
2023-01-18T09:11:07.976Z,5.80
2023-01-18T09:13:34.851Z,6.10
2023-01-18T09:16:07.706Z,6.30
2023-01-18T09:18:34.834Z,7.30
2023-01-18T09:21:10.326Z,8.00
2023-01-18T09:23:39.991Z,7.60
2023-01-18T09:26:20.374Z,7.70
2023-01-18T09:28:54.591Z,7.60
2023-01-18T09:31:24.473Z,7.20
2023-01-18T09:33:53.832Z,6.70
2023-01-18T09:36:26.633Z,6.30
2023-01-18T09:38:56.869Z,6.10
2023-01-18T09:41:39.960Z,6.20
2023-01-18T09:44:30.075Z,6.00
2023-01-18T09:47:00.017Z,5.80
2023-01-18T09:49:38.170Z,5.70
2023-01-18T09:52:24.967Z,5.90
2023-01-18T09:55:03.817Z,5.60
2023-01-18T09:57:44.772Z,5.20
2023-01-18T10:00:25.622Z,4.80
2023-01-18T10:03:04.894Z,4.60
2023-01-18T10:05:36.036Z,4.60
2023-01-18T10:08:13.481Z,4.40
2023-01-18T10:11:02.856Z,4.20
2023-01-18T10:14:03.287Z,4.20
2023-01-18T10:16:34.085Z,4.10
2023-01-18T10:19:04.290Z,3.90
2023-01-18T10:21:50.837Z,3.90
2023-01-18T10:24:20.971Z,3.90
2023-01-18T10:26:50.937Z,3.80
2023-01-18T10:29:37.307Z,3.70
2023-01-18T10:32:10.966Z,3.80
2023-01-18T10:34:44.598Z,3.80
2023-01-18T10:37:31.495Z,3.90
2023-01-18T10:40:03.960Z,3.90
2023-01-18T10:42:49.207Z,3.80
2023-01-18T10:45:22.776Z,3.70
2023-01-18T10:47:51.803Z,3.90
2023-01-18T10:50:22.478Z,3.80
2023-01-18T10:52:49.738Z,4.00
2023-01-18T10:55:19.483Z,4.00
2023-01-18T10:57:55.252Z,4.10
2023-01-18T11:00:42.370Z,4.00
2023-01-18T11:03:14.938Z,4.00
2023-01-18T11:05:45.560Z,4.00
2023-01-18T11:08:12.466Z,4.00
2023-01-18T11:10:41.541Z,4.10
2023-01-18T11:13:34.607Z,4.00
2023-01-18T11:16:18.098Z,3.80
2023-01-18T11:19:06.247Z,3.80
2023-01-18T11:21:41.205Z,3.70
2023-01-18T11:24:12.975Z,3.50
2023-01-18T11:26:56.046Z,3.50
2023-01-18T11:29:28.708Z,3.50
2023-01-18T11:32:00.522Z,3.60
2023-01-18T11:34:41.371Z,3.70
2023-01-18T11:37:31.018Z,3.70
2023-01-18T11:39:58.176Z,3.60
2023-01-18T11:42:30.511Z,3.50
2023-01-18T11:45:12.393Z,3.50
2023-01-18T11:48:14.754Z,3.50
2023-01-18T11:50:52.683Z,3.50
2023-01-18T11:53:41.732Z,3.60
2023-01-18T11:56:34.545Z,3.70
2023-01-18T11:59:03.526Z,3.60
2023-01-18T12:01:46.287Z,3.50
2023-01-18T12:04:28.974Z,3.50
2023-01-18T12:07:29.481Z,4.00
2023-01-18T12:10:00.189Z,4.60
2023-01-18T12:13:05.516Z,4.80
2023-01-18T12:15:59.086Z,4.70
2023-01-18T12:18:54.250Z,5.50
2023-01-18T12:21:34.681Z,5.60
2023-01-18T12:24:38.654Z,5.60
2023-01-18T12:27:19.042Z,5.80
2023-01-18T12:29:45.829Z,5.80
2023-01-18T12:32:30.329Z,6.30
2023-01-18T12:35:25.027Z,6.30
2023-01-18T12:38:28.395Z,6.00
2023-01-18T12:41:31.691Z,5.40
2023-01-18T12:44:25.844Z,5.30
2023-01-18T12:47:01.570Z,5.60
2023-01-18T12:49:32.679Z,5.10
2023-01-18T12:52:17.710Z,4.80
2023-01-18T12:54:52.127Z,4.70
2023-01-18T12:57:21.599Z,4.40
2023-01-18T12:59:57.773Z,3.90
2023-01-18T13:02:40.009Z,3.80
2023-01-18T13:05:35.216Z,3.70
2023-01-18T13:08:10.965Z,3.50
2023-01-18T13:10:38.540Z,3.60
2023-01-18T13:13:06.550Z,3.80
2023-01-18T13:15:48.408Z,3.90
2023-01-18T13:18:36.255Z,3.70
2023-01-18T13:21:41.700Z,4.20
2023-01-18T13:24:26.267Z,4.10
2023-01-18T13:26:53.313Z,3.80
2023-01-18T13:29:20.093Z,3.80
2023-01-18T13:31:47.355Z,3.50
2023-01-18T13:34:33.911Z,3.30
2023-01-18T13:37:14.375Z,3.10
2023-01-18T13:39:48.205Z,3.00
2023-01-18T13:42:35.220Z,2.90
2023-01-18T13:45:23.108Z,2.80
2023-01-18T13:47:55.789Z,2.70
2023-01-18T13:50:28.351Z,2.50
2023-01-18T13:53:13.737Z,2.40
2023-01-18T13:55:45.862Z,2.40
2023-01-18T13:58:26.554Z,2.30
2023-01-18T14:00:55.784Z,2.20
2023-01-18T14:03:27.191Z,2.10
2023-01-18T14:05:55.275Z,1.90
2023-01-18T14:08:29.280Z,1.80
2023-01-18T14:11:05.738Z,1.80
2023-01-18T14:13:48.253Z,1.80
2023-01-18T14:16:30.093Z,1.70
2023-01-18T14:19:06.312Z,1.70
2023-01-18T14:21:47.535Z,1.60
2023-01-18T14:24:20.115Z,1.70
2023-01-18T14:26:47.764Z,1.60
2023-01-18T14:29:34.187Z,1.60
2023-01-18T14:32:04.820Z,1.50
2023-01-18T14:34:44.825Z,1.50
2023-01-18T14:37:27.062Z,1.50
2023-01-18T14:40:12.635Z,1.50
2023-01-18T14:42:49.909Z,1.50
2023-01-18T14:45:29.165Z,1.50
2023-01-18T14:48:17.369Z,1.50
2023-01-18T14:50:47.713Z,1.50
2023-01-18T14:53:22.097Z,1.40
2023-01-18T14:56:04.543Z,1.40
2023-01-18T14:58:37.193Z,1.30
2023-01-18T15:01:05.252Z,1.30
2023-01-18T15:03:32.413Z,1.20
2023-01-18T15:06:21.710Z,1.20
2023-01-18T15:08:49.938Z,1.20
2023-01-18T15:11:16.847Z,1.20
2023-01-18T15:13:49.154Z,1.10
2023-01-18T15:16:20.266Z,1.10
2023-01-18T15:18:52.544Z,1.10
2023-01-18T15:21:28.770Z,1.20
2023-01-18T15:24:09.103Z,1.20
2023-01-18T15:26:39.787Z,1.20
2023-01-18T15:29:13.343Z,1.10
2023-01-18T15:31:55.987Z,1.10
2023-01-18T15:34:30.230Z,1.10
2023-01-18T15:36:59.426Z,1.00
2023-01-18T15:39:26.542Z,1.00
2023-01-18T15:41:56.366Z,1.00
2023-01-18T15:44:40.046Z,0.90
2023-01-18T15:47:27.673Z,0.90
2023-01-18T15:50:00.526Z,0.90
2023-01-18T15:53:06.252Z,0.90
2023-01-18T15:55:45.946Z,0.80
2023-01-18T15:58:40.992Z,0.90
2023-01-18T16:01:19.511Z,0.90
2023-01-18T16:03:49.128Z,0.90
2023-01-18T16:06:32.442Z,0.90
2023-01-18T16:09:13.303Z,0.90
2023-01-18T16:11:56.618Z,0.80
2023-01-18T16:14:30.997Z,0.80
2023-01-18T16:17:06.740Z,0.80
2023-01-18T16:19:36.394Z,0.80
2023-01-18T16:22:05.930Z,0.70
2023-01-18T16:24:36.773Z,0.70
2023-01-18T16:27:15.740Z,0.70
2023-01-18T16:29:46.521Z,0.70
2023-01-18T16:32:31.984Z,0.80
2023-01-18T16:35:13.902Z,0.80
2023-01-18T16:37:44.785Z,0.80
2023-01-18T16:40:19.100Z,0.70
2023-01-18T16:43:06.914Z,0.70
2023-01-18T16:45:38.524Z,0.80
2023-01-18T16:48:06.513Z,0.80
2023-01-18T16:50:33.343Z,0.80
2023-01-18T16:53:00.126Z,0.70
2023-01-18T16:55:27.150Z,0.70
2023-01-18T16:57:54.285Z,0.70
2023-01-18T17:00:28.264Z,0.70
2023-01-18T17:02:55.703Z,0.70
2023-01-18T17:05:22.860Z,0.70
2023-01-18T17:07:52.160Z,0.70
2023-01-18T17:10:21.069Z,0.70
2023-01-18T17:12:47.884Z,0.70
2023-01-18T17:15:15.220Z,0.70
2023-01-18T17:17:43.381Z,0.70
2023-01-18T17:20:18.080Z,0.70
2023-01-18T17:22:45.026Z,0.70
2023-01-18T17:25:12.081Z,0.70
2023-01-18T17:27:39.198Z,0.70
2023-01-18T17:30:07.581Z,0.70
2023-01-18T17:32:34.782Z,0.70
2023-01-18T17:35:02.886Z,0.70
2023-01-18T17:37:29.758Z,0.70
2023-01-18T17:40:12.101Z,0.70
2023-01-18T17:42:40.778Z,0.80
2023-01-18T17:45:14.266Z,0.70
2023-01-18T17:47:43.369Z,0.70
2023-01-18T17:50:12.711Z,0.70
2023-01-18T17:52:40.621Z,0.70
2023-01-18T17:55:10.468Z,0.70
2023-01-18T17:57:37.350Z,0.80
2023-01-18T18:00:05.735Z,0.70
2023-01-18T18:02:32.627Z,0.70
2023-01-18T18:04:59.472Z,0.70
2023-01-18T18:07:26.431Z,0.70
2023-01-18T18:09:58.239Z,0.70
2023-01-18T18:12:25.100Z,0.80
2023-01-18T18:14:53.375Z,0.80
2023-01-18T18:17:20.290Z,0.80
2023-01-18T18:19:47.086Z,0.80
2023-01-18T18:22:13.902Z,0.70
2023-01-18T18:24:40.717Z,0.70
2023-01-18T18:27:07.528Z,0.70
2023-01-18T18:29:34.309Z,0.70
2023-01-18T18:32:01.118Z,0.60
2023-01-18T18:34:30.167Z,0.70
2023-01-18T18:36:57.027Z,0.60
2023-01-18T18:39:23.809Z,0.60
2023-01-18T18:41:50.750Z,0.60
2023-01-18T18:44:17.534Z,0.60
2023-01-18T18:46:44.431Z,0.50
2023-01-18T18:49:11.470Z,0.50
2023-01-18T18:51:38.249Z,0.60
2023-01-18T18:54:05.183Z,0.60
2023-01-18T18:56:32.274Z,0.60
2023-01-18T18:58:59.674Z,0.60
2023-01-18T19:01:31.861Z,0.60
2023-01-18T19:03:59.689Z,0.60
2023-01-18T19:06:27.134Z,0.60
2023-01-18T19:08:54.623Z,0.50
2023-01-18T19:11:21.691Z,0.50
2023-01-18T19:13:49.691Z,0.50
2023-01-18T19:16:17.295Z,0.50
2023-01-18T19:18:44.211Z,0.50
2023-01-18T19:21:11.148Z,0.50
2023-01-18T19:23:38.004Z,0.40
2023-01-18T19:26:04.872Z,0.40
2023-01-18T19:28:31.727Z,0.40
2023-01-18T19:31:03.130Z,0.30
2023-01-18T19:33:30.028Z,0.30
2023-01-18T19:35:57.295Z,0.30
2023-01-18T19:38:24.782Z,0.30
2023-01-18T19:40:51.786Z,0.30
2023-01-18T19:43:18.646Z,0.30
2023-01-18T19:45:45.456Z,0.30
2023-01-18T19:48:12.271Z,0.30
2023-01-18T19:50:39.096Z,0.30
2023-01-18T19:53:05.941Z,0.20
2023-01-18T19:55:32.736Z,0.20
2023-01-18T19:58:01.549Z,0.20
2023-01-18T20:00:29.557Z,0.20
2023-01-18T20:02:56.585Z,0.20
2023-01-18T20:05:23.443Z,0.30
2023-01-18T20:07:51.247Z,0.30
2023-01-18T20:10:20.270Z,0.30
2023-01-18T20:12:50.381Z,0.30
2023-01-18T20:15:18.619Z,0.20
2023-01-18T20:17:45.482Z,0.30
2023-01-18T20:20:16.155Z,0.30
2023-01-18T20:22:46.294Z,0.30
2023-01-18T20:25:13.184Z,0.30
2023-01-18T20:27:40.045Z,0.30
2023-01-18T20:30:07.528Z,0.30
2023-01-18T20:32:34.412Z,0.30
2023-01-18T20:35:01.260Z,0.30
2023-01-18T20:37:28.239Z,0.30
2023-01-18T20:39:56.017Z,0.30
2023-01-18T20:42:22.876Z,0.30
2023-01-18T20:44:53.584Z,0.30
2023-01-18T20:47:20.387Z,0.30
2023-01-18T20:49:47.266Z,0.30
2023-01-18T20:52:14.197Z,0.30
2023-01-18T20:54:41.045Z,0.30
2023-01-18T20:57:07.828Z,0.30
2023-01-18T20:59:34.786Z,0.30
2023-01-18T21:02:03.171Z,0.30
2023-01-18T21:04:30.173Z,0.30
2023-01-18T21:06:57.383Z,0.20
2023-01-18T21:09:25.417Z,0.20
2023-01-18T21:11:52.293Z,0.30
2023-01-18T21:14:19.143Z,0.20
2023-01-18T21:16:46.349Z,0.20
2023-01-18T21:19:13.714Z,0.10
2023-01-18T21:21:40.538Z,0.10
2023-01-18T21:24:07.754Z,0.10
2023-01-18T21:26:36.098Z,0.00
2023-01-18T21:29:03.046Z,0.00
2023-01-18T21:31:29.868Z,0.00
2023-01-18T21:33:56.762Z,0.00
2023-01-18T21:36:23.695Z,0.00
2023-01-18T21:38:50.861Z,-0.10
2023-01-18T21:41:36.404Z,-0.10
2023-01-18T21:44:21.864Z,-0.10
2023-01-18T21:46:51.238Z,-0.20
2023-01-18T21:50:03.975Z,-0.20
2023-01-18T21:52:42.426Z,-0.20
2023-01-18T21:55:09.496Z,-0.20
2023-01-18T21:57:36.647Z,-0.20
2023-01-18T22:00:05.018Z,-0.20
2023-01-18T22:02:33.139Z,-0.20
2023-01-18T22:05:00.213Z,-0.20
2023-01-18T22:07:28.291Z,-0.20
2023-01-18T22:10:03.951Z,-0.30
2023-01-18T22:12:33.408Z,-0.30
2023-01-18T22:15:02.162Z,-0.30
2023-01-18T22:17:29.212Z,-0.40
2023-01-18T22:19:56.143Z,-0.40
2023-01-18T22:22:23.062Z,-0.40
2023-01-18T22:24:49.948Z,-0.40
2023-01-18T22:27:16.748Z,-0.40
2023-01-18T22:29:43.514Z,-0.40
2023-01-18T22:32:10.390Z,-0.40
2023-01-18T22:34:37.220Z,-0.40
2023-01-18T22:37:04.076Z,-0.40
2023-01-18T22:39:30.928Z,-0.40
2023-01-18T22:41:57.803Z,-0.40
2023-01-18T22:44:24.686Z,-0.30
2023-01-18T22:46:51.888Z,-0.40
2023-01-18T22:49:18.711Z,-0.40
2023-01-18T22:51:45.515Z,-0.40
2023-01-18T22:54:12.289Z,-0.40
2023-01-18T22:56:39.086Z,-0.50
2023-01-18T22:59:05.877Z,-0.40
2023-01-18T23:01:33.587Z,-0.50
2023-01-18T23:04:02.484Z,-0.50
2023-01-18T23:06:41.944Z,-0.50
2023-01-18T23:09:09.996Z,-0.50
2023-01-18T23:11:37.605Z,-0.50
2023-01-18T23:14:23.997Z,-0.50
2023-01-18T23:17:09.597Z,-0.50
2023-01-18T23:19:36.903Z,-0.50
2023-01-18T23:22:07.150Z,-0.50
2023-01-18T23:24:35.704Z,-0.50
2023-01-18T23:27:03.548Z,-0.50
2023-01-18T23:29:30.559Z,-0.50
2023-01-18T23:31:58.457Z,-0.50
2023-01-18T23:34:25.900Z,-0.60
2023-01-18T23:36:53.120Z,-0.60
2023-01-18T23:39:38.790Z,-0.50
2023-01-18T23:42:24.341Z,-0.50
2023-01-18T23:45:10.051Z,-0.60
2023-01-18T23:47:55.663Z,-0.60
2023-01-18T23:50:40.948Z,-0.60
2023-01-18T23:53:30.968Z,-0.60
2023-01-18T23:55:57.952Z,-0.60
2023-01-18T23:58:24.999Z,-0.50
